sensor_id;sensor_type;location;lat;lon;timestamp;temperature;humidity
72202;SHT30;60105;54.956;73.412;2023-01-24T00:01:07;-2.34;72.14
72202;SHT30;60105;54.956;73.412;2023-01-24T00:03:33;-2.31;72.02
72202;SHT30;60105;54.956;73.412;2023-01-24T00:05:59;-2.34;71.99
72202;SHT30;60105;54.956;73.412;2023-01-24T00:08:26;-2.35;71.92
72202;SHT30;60105;54.956;73.412;2023-01-24T00:11:06;-2.53;72.05
72202;SHT30;60105;54.956;73.412;2023-01-24T00:13:33;-2.58;72.54
72202;SHT30;60105;54.956;73.412;2023-01-24T00:16:17;-2.65;72.46
72202;SHT30;60105;54.956;73.412;2023-01-24T00:18:43;-2.66;72.69
72202;SHT30;60105;54.956;73.412;2023-01-24T00:21:15;-2.40;73.20
72202;SHT30;60105;54.956;73.412;2023-01-24T00:23:53;-2.31;71.94
72202;SHT30;60105;54.956;73.412;2023-01-24T00:26:21;-2.24;71.15
72202;SHT30;60105;54.956;73.412;2023-01-24T00:28:48;-2.31;71.11
72202;SHT30;60105;54.956;73.412;2023-01-24T00:31:15;-2.34;71.48
72202;SHT30;60105;54.956;73.412;2023-01-24T00:33:42;-2.28;71.14
72202;SHT30;60105;54.956;73.412;2023-01-24T00:36:09;-2.18;70.91
72202;SHT30;60105;54.956;73.412;2023-01-24T00:38:35;-2.21;70.58
72202;SHT30;60105;54.956;73.412;2023-01-24T00:41:01;-2.22;70.49
72202;SHT30;60105;54.956;73.412;2023-01-24T00:43:28;-2.20;70.56
72202;SHT30;60105;54.956;73.412;2023-01-24T00:46:05;-2.03;71.07
72202;SHT30;60105;54.956;73.412;2023-01-24T00:48:33;-2.01;70.72
72202;SHT30;60105;54.956;73.412;2023-01-24T00:50:59;-2.04;70.17
72202;SHT30;60105;54.956;73.412;2023-01-24T00:53:30;-2.03;70.17
72202;SHT30;60105;54.956;73.412;2023-01-24T00:55:56;-2.15;70.48
72202;SHT30;60105;54.956;73.412;2023-01-24T00:58:27;-2.25;70.96
72202;SHT30;60105;54.956;73.412;2023-01-24T01:00:57;-2.21;70.80
72202;SHT30;60105;54.956;73.412;2023-01-24T01:03:26;-2.30;71.02
72202;SHT30;60105;54.956;73.412;2023-01-24T01:06:04;-2.28;71.03
72202;SHT30;60105;54.956;73.412;2023-01-24T01:08:31;-2.34;71.34
72202;SHT30;60105;54.956;73.412;2023-01-24T01:10:58;-2.28;71.13
72202;SHT30;60105;54.956;73.412;2023-01-24T01:13:26;-2.38;71.59
72202;SHT30;60105;54.956;73.412;2023-01-24T01:16:00;-2.41;71.49
72202;SHT30;60105;54.956;73.412;2023-01-24T01:18:26;-2.61;71.87
72202;SHT30;60105;54.956;73.412;2023-01-24T01:20:53;-2.61;72.35
72202;SHT30;60105;54.956;73.412;2023-01-24T01:23:19;-2.61;72.23
72202;SHT30;60105;54.956;73.412;2023-01-24T01:25:45;-2.58;72.28
72202;SHT30;60105;54.956;73.412;2023-01-24T01:28:12;-2.46;71.70
72202;SHT30;60105;54.956;73.412;2023-01-24T01:30:38;-2.61;71.90
72202;SHT30;60105;54.956;73.412;2023-01-24T01:33:04;-2.65;72.22
72202;SHT30;60105;54.956;73.412;2023-01-24T01:35:34;-2.58;72.12
72202;SHT30;60105;54.956;73.412;2023-01-24T01:38:00;-2.49;72.14
72202;SHT30;60105;54.956;73.412;2023-01-24T01:40:26;-2.46;71.58
72202;SHT30;60105;54.956;73.412;2023-01-24T01:42:54;-2.48;71.90
72202;SHT30;60105;54.956;73.412;2023-01-24T01:45:43;-2.49;71.78
72202;SHT30;60105;54.956;73.412;2023-01-24T01:53:35;-2.56;72.18
72202;SHT30;60105;54.956;73.412;2023-01-24T01:56:11;-2.65;71.87
72202;SHT30;60105;54.956;73.412;2023-01-24T01:58:40;-2.66;72.46
72202;SHT30;60105;54.956;73.412;2023-01-24T02:01:12;-2.65;72.01
72202;SHT30;60105;54.956;73.412;2023-01-24T02:03:50;-2.68;71.92
72202;SHT30;60105;54.956;73.412;2023-01-24T02:06:47;-2.70;72.33
72202;SHT30;60105;54.956;73.412;2023-01-24T02:09:23;-2.79;72.63
72202;SHT30;60105;54.956;73.412;2023-01-24T02:12:07;-2.73;72.72
72202;SHT30;60105;54.956;73.412;2023-01-24T02:14:34;-2.68;72.45
72202;SHT30;60105;54.956;73.412;2023-01-24T02:17:25;-2.68;72.30
72202;SHT30;60105;54.956;73.412;2023-01-24T02:23:00;-2.83;72.63
72202;SHT30;60105;54.956;73.412;2023-01-24T02:25:46;-2.99;73.01
72202;SHT30;60105;54.956;73.412;2023-01-24T02:28:15;-3.05;73.66
72202;SHT30;60105;54.956;73.412;2023-01-24T02:30:46;-2.99;73.51
72202;SHT30;60105;54.956;73.412;2023-01-24T02:33:23;-2.90;73.23
72202;SHT30;60105;54.956;73.412;2023-01-24T02:36:25;-2.87;72.84
72202;SHT30;60105;54.956;73.412;2023-01-24T02:39:05;-2.83;72.69
72202;SHT30;60105;54.956;73.412;2023-01-24T02:41:38;-2.90;73.25
72202;SHT30;60105;54.956;73.412;2023-01-24T02:44:12;-2.93;72.95
72202;SHT30;60105;54.956;73.412;2023-01-24T02:46:42;-2.94;73.63
72202;SHT30;60105;54.956;73.412;2023-01-24T02:49:13;-2.84;73.42
72202;SHT30;60105;54.956;73.412;2023-01-24T02:51:40;-2.72;72.97
72202;SHT30;60105;54.956;73.412;2023-01-24T02:54:25;-2.76;72.38
72202;SHT30;60105;54.956;73.412;2023-01-24T02:56:51;-2.73;72.56
72202;SHT30;60105;54.956;73.412;2023-01-24T02:59:36;-2.58;71.99
72202;SHT30;60105;54.956;73.412;2023-01-24T03:02:02;-2.46;71.46
72202;SHT30;60105;54.956;73.412;2023-01-24T03:04:33;-2.46;71.24
72202;SHT30;60105;54.956;73.412;2023-01-24T03:07:09;-2.48;71.24
72202;SHT30;60105;54.956;73.412;2023-01-24T03:09:39;-2.45;71.19
72202;SHT30;60105;54.956;73.412;2023-01-24T03:12:25;-2.45;71.19
72202;SHT30;60105;54.956;73.412;2023-01-24T03:15:17;-2.44;71.18
72202;SHT30;60105;54.956;73.412;2023-01-24T03:18:12;-2.53;71.08
72202;SHT30;60105;54.956;73.412;2023-01-24T03:21:06;-2.65;71.32
72202;SHT30;60105;54.956;73.412;2023-01-24T03:23:52;-2.62;71.84
72202;SHT30;60105;54.956;73.412;2023-01-24T03:26:36;-2.53;71.80
72202;SHT30;60105;54.956;73.412;2023-01-24T03:29:21;-2.48;71.55
72202;SHT30;60105;54.956;73.412;2023-01-24T03:32:10;-2.41;71.13
72202;SHT30;60105;54.956;73.412;2023-01-24T03:34:57;-2.38;70.78
72202;SHT30;60105;54.956;73.412;2023-01-24T03:37:39;-2.48;71.38
72202;SHT30;60105;54.956;73.412;2023-01-24T03:40:30;-2.61;71.59
72202;SHT30;60105;54.956;73.412;2023-01-24T03:42:57;-2.69;71.53
72202;SHT30;60105;54.956;73.412;2023-01-24T03:45:31;-2.72;72.31
72202;SHT30;60105;54.956;73.412;2023-01-24T03:48:08;-2.82;72.20
72202;SHT30;60105;54.956;73.412;2023-01-24T03:50:43;-2.82;72.39
72202;SHT30;60105;54.956;73.412;2023-01-24T03:53:43;-2.86;72.39
72202;SHT30;60105;54.956;73.412;2023-01-24T03:56:19;-2.92;72.56
72202;SHT30;60105;54.956;73.412;2023-01-24T03:58:53;-3.04;73.06
72202;SHT30;60105;54.956;73.412;2023-01-24T04:01:21;-2.92;73.26
72202;SHT30;60105;54.956;73.412;2023-01-24T04:03:59;-2.83;72.59
72202;SHT30;60105;54.956;73.412;2023-01-24T04:06:30;-2.75;72.40
72202;SHT30;60105;54.956;73.412;2023-01-24T04:09:03;-2.62;72.11
72202;SHT30;60105;54.956;73.412;2023-01-24T04:11:29;-2.52;71.46
72202;SHT30;60105;54.956;73.412;2023-01-24T04:14:11;-2.66;71.63
72202;SHT30;60105;54.956;73.412;2023-01-24T04:16:48;-2.59;71.56
72202;SHT30;60105;54.956;73.412;2023-01-24T04:19:18;-2.58;71.09
72202;SHT30;60105;54.956;73.412;2023-01-24T04:21:45;-2.62;71.44
72202;SHT30;60105;54.956;73.412;2023-01-24T04:24:17;-2.70;71.76
72202;SHT30;60105;54.956;73.412;2023-01-24T04:26:44;-2.63;71.88
72202;SHT30;60105;54.956;73.412;2023-01-24T04:29:26;-2.70;71.60
72202;SHT30;60105;54.956;73.412;2023-01-24T04:31:56;-2.56;71.42
72202;SHT30;60105;54.956;73.412;2023-01-24T04:34:46;-2.58;71.12
72202;SHT30;60105;54.956;73.412;2023-01-24T04:37:21;-2.48;71.03
72202;SHT30;60105;54.956;73.412;2023-01-24T04:39:47;-2.45;70.47
72202;SHT30;60105;54.956;73.412;2023-01-24T04:42:16;-2.42;69.98
72202;SHT30;60105;54.956;73.412;2023-01-24T04:44:44;-2.49;69.76
72202;SHT30;60105;54.956;73.412;2023-01-24T04:47:21;-2.46;70.36
72202;SHT30;60105;54.956;73.412;2023-01-24T04:49:51;-2.42;70.06
72202;SHT30;60105;54.956;73.412;2023-01-24T04:52:19;-2.32;69.55
72202;SHT30;60105;54.956;73.412;2023-01-24T04:54:55;-2.48;69.88
72202;SHT30;60105;54.956;73.412;2023-01-24T04:57:22;-2.45;70.26
72202;SHT30;60105;54.956;73.412;2023-01-24T04:59:49;-2.44;70.32
72202;SHT30;60105;54.956;73.412;2023-01-24T05:02:15;-2.32;70.06
72202;SHT30;60105;54.956;73.412;2023-01-24T05:04:43;-2.21;69.54
72202;SHT30;60105;54.956;73.412;2023-01-24T05:07:20;-2.24;69.39
72202;SHT30;60105;54.956;73.412;2023-01-24T05:09:56;-2.32;69.95
72202;SHT30;60105;54.956;73.412;2023-01-24T05:12:28;-2.35;70.49
72202;SHT30;60105;54.956;73.412;2023-01-24T05:14:57;-2.37;70.48
72202;SHT30;60105;54.956;73.412;2023-01-24T05:17:25;-2.31;70.43
72202;SHT30;60105;54.956;73.412;2023-01-24T05:19:54;-2.30;70.49
72202;SHT30;60105;54.956;73.412;2023-01-24T05:22:28;-2.38;71.14
72202;SHT30;60105;54.956;73.412;2023-01-24T05:25:05;-2.37;71.27
72202;SHT30;60105;54.956;73.412;2023-01-24T05:27:32;-2.32;70.96
72202;SHT30;60105;54.956;73.412;2023-01-24T05:30:02;-2.28;70.82
72202;SHT30;60105;54.956;73.412;2023-01-24T05:32:30;-2.22;70.35
72202;SHT30;60105;54.956;73.412;2023-01-24T05:35:03;-2.34;70.83
72202;SHT30;60105;54.956;73.412;2023-01-24T05:37:30;-2.27;70.93
72202;SHT30;60105;54.956;73.412;2023-01-24T05:40:01;-2.38;71.08
72202;SHT30;60105;54.956;73.412;2023-01-24T05:42:40;-2.40;70.77
72202;SHT30;60105;54.956;73.412;2023-01-24T05:45:07;-2.55;71.01
72202;SHT30;60105;54.956;73.412;2023-01-24T05:47:39;-2.75;71.83
72202;SHT30;60105;54.956;73.412;2023-01-24T05:50:07;-2.70;71.69
72202;SHT30;60105;54.956;73.412;2023-01-24T05:52:35;-2.82;71.78
72202;SHT30;60105;54.956;73.412;2023-01-24T05:55:01;-2.92;71.82
72202;SHT30;60105;54.956;73.412;2023-01-24T05:57:40;-2.97;72.30
72202;SHT30;60105;54.956;73.412;2023-01-24T06:00:15;-3.04;71.94
72202;SHT30;60105;54.956;73.412;2023-01-24T06:03:01;-3.13;71.85
72202;SHT30;60105;54.956;73.412;2023-01-24T06:05:33;-3.03;72.04
72202;SHT30;60105;54.956;73.412;2023-01-24T06:07:59;-2.90;71.82
72202;SHT30;60105;54.956;73.412;2023-01-24T06:10:31;-2.93;71.03
72202;SHT30;60105;54.956;73.412;2023-01-24T06:13:11;-2.83;71.06
72202;SHT30;60105;54.956;73.412;2023-01-24T06:15:38;-2.90;70.59
72202;SHT30;60105;54.956;73.412;2023-01-24T06:18:15;-2.75;71.20
72202;SHT30;60105;54.956;73.412;2023-01-24T06:20:44;-2.80;70.71
72202;SHT30;60105;54.956;73.412;2023-01-24T06:23:23;-2.69;70.50
72202;SHT30;60105;54.956;73.412;2023-01-24T06:25:50;-2.70;70.11
72202;SHT30;60105;54.956;73.412;2023-01-24T06:28:17;-2.68;70.29
72202;SHT30;60105;54.956;73.412;2023-01-24T06:39:01;-2.59;69.11
72202;SHT30;60105;54.956;73.412;2023-01-24T06:41:28;-2.62;68.98
72202;SHT30;60105;54.956;73.412;2023-01-24T06:44:05;-2.93;69.27
72202;SHT30;60105;54.956;73.412;2023-01-24T06:46:40;-3.03;69.97
72202;SHT30;60105;54.956;73.412;2023-01-24T06:49:12;-3.13;70.64
72202;SHT30;60105;54.956;73.412;2023-01-24T06:51:38;-3.10;70.53
72202;SHT30;60105;54.956;73.412;2023-01-24T06:54:04;-3.15;70.83
72202;SHT30;60105;54.956;73.412;2023-01-24T06:56:31;-3.37;70.60
72202;SHT30;60105;54.956;73.412;2023-01-24T06:58:57;-3.44;71.58
72202;SHT30;60105;54.956;73.412;2023-01-24T07:01:24;-3.63;71.83
72202;SHT30;60105;54.956;73.412;2023-01-24T07:03:50;-3.78;71.93
72202;SHT30;60105;54.956;73.412;2023-01-24T07:06:16;-3.85;72.50
72202;SHT30;60105;54.956;73.412;2023-01-24T07:08:47;-3.83;72.47
72202;SHT30;60105;54.956;73.412;2023-01-24T07:11:14;-3.85;72.84
72202;SHT30;60105;54.956;73.412;2023-01-24T07:13:40;-3.89;73.11
72202;SHT30;60105;54.956;73.412;2023-01-24T07:16:10;-3.93;73.15
72202;SHT30;60105;54.956;73.412;2023-01-24T07:18:37;-3.81;72.45
72202;SHT30;60105;54.956;73.412;2023-01-24T07:21:13;-3.81;72.34
72202;SHT30;60105;54.956;73.412;2023-01-24T07:23:43;-3.87;72.74
72202;SHT30;60105;54.956;73.412;2023-01-24T07:26:10;-3.92;72.20
72202;SHT30;60105;54.956;73.412;2023-01-24T07:28:37;-3.83;71.81
72202;SHT30;60105;54.956;73.412;2023-01-24T07:31:04;-3.87;72.23
72202;SHT30;60105;54.956;73.412;2023-01-24T07:33:30;-3.75;71.73
72202;SHT30;60105;54.956;73.412;2023-01-24T07:35:56;-3.83;71.57
72202;SHT30;60105;54.956;73.412;2023-01-24T07:38:23;-3.94;72.05
72202;SHT30;60105;54.956;73.412;2023-01-24T07:41:06;-3.96;72.43
72202;SHT30;60105;54.956;73.412;2023-01-24T07:43:32;-4.04;72.52
72202;SHT30;60105;54.956;73.412;2023-01-24T07:45:58;-3.87;72.55
72202;SHT30;60105;54.956;73.412;2023-01-24T07:48:34;-3.86;71.91
72202;SHT30;60105;54.956;73.412;2023-01-24T07:51:01;-3.94;71.70
72202;SHT30;60105;54.956;73.412;2023-01-24T07:53:27;-3.97;71.87
72202;SHT30;60105;54.956;73.412;2023-01-24T07:55:54;-3.94;71.61
72202;SHT30;60105;54.956;73.412;2023-01-24T07:58:20;-3.92;71.97
72202;SHT30;60105;54.956;73.412;2023-01-24T08:00:46;-3.89;71.52
72202;SHT30;60105;54.956;73.412;2023-01-24T08:03:13;-3.99;71.26
72202;SHT30;60105;54.956;73.412;2023-01-24T08:05:39;-4.03;71.38
72202;SHT30;60105;54.956;73.412;2023-01-24T08:08:05;-4.20;71.84
72202;SHT30;60105;54.956;73.412;2023-01-24T08:10:32;-4.21;71.84
72202;SHT30;60105;54.956;73.412;2023-01-24T08:13:02;-4.34;71.69
72202;SHT30;60105;54.956;73.412;2023-01-24T08:15:29;-4.40;72.65
72202;SHT30;60105;54.956;73.412;2023-01-24T08:18:05;-4.30;72.16
72202;SHT30;60105;54.956;73.412;2023-01-24T08:20:32;-4.32;72.28
72202;SHT30;60105;54.956;73.412;2023-01-24T08:22:58;-4.25;72.65
72202;SHT30;60105;54.956;73.412;2023-01-24T08:25:29;-4.18;72.23
72202;SHT30;60105;54.956;73.412;2023-01-24T08:27:57;-4.09;71.92
72202;SHT30;60105;54.956;73.412;2023-01-24T08:30:24;-4.07;71.57
72202;SHT30;60105;54.956;73.412;2023-01-24T08:33:01;-3.96;71.06
72202;SHT30;60105;54.956;73.412;2023-01-24T08:35:28;-3.90;71.43
72202;SHT30;60105;54.956;73.412;2023-01-24T08:37:54;-3.87;70.94
72202;SHT30;60105;54.956;73.412;2023-01-24T08:40:21;-3.85;70.89
72202;SHT30;60105;54.956;73.412;2023-01-24T08:42:47;-3.78;70.97
72202;SHT30;60105;54.956;73.412;2023-01-24T08:45:13;-3.79;71.08
72202;SHT30;60105;54.956;73.412;2023-01-24T08:47:40;-3.85;71.15
72202;SHT30;60105;54.956;73.412;2023-01-24T08:50:06;-3.78;70.94
72202;SHT30;60105;54.956;73.412;2023-01-24T08:52:33;-4.04;71.22
72202;SHT30;60105;54.956;73.412;2023-01-24T08:55:09;-4.07;71.85
72202;SHT30;60105;54.956;73.412;2023-01-24T08:57:35;-4.17;71.69
72202;SHT30;60105;54.956;73.412;2023-01-24T09:00:02;-4.15;72.18
72202;SHT30;60105;54.956;73.412;2023-01-24T09:02:30;-4.11;71.87
72202;SHT30;60105;54.956;73.412;2023-01-24T09:04:58;-4.04;72.06
72202;SHT30;60105;54.956;73.412;2023-01-24T09:07:35;-4.00;71.68
72202;SHT30;60105;54.956;73.412;2023-01-24T09:10:03;-3.89;71.49
72202;SHT30;60105;54.956;73.412;2023-01-24T09:12:30;-3.78;70.68
72202;SHT30;60105;54.956;73.412;2023-01-24T09:14:58;-3.76;70.38
72202;SHT30;60105;54.956;73.412;2023-01-24T09:17:24;-3.87;70.64
72202;SHT30;60105;54.956;73.412;2023-01-24T09:19:51;-4.03;70.94
72202;SHT30;60105;54.956;73.412;2023-01-24T09:22:17;-4.17;71.27
72202;SHT30;60105;54.956;73.412;2023-01-24T09:24:43;-4.23;72.12
72202;SHT30;60105;54.956;73.412;2023-01-24T09:27:12;-4.24;72.26
72202;SHT30;60105;54.956;73.412;2023-01-24T09:29:39;-4.30;72.51
72202;SHT30;60105;54.956;73.412;2023-01-24T09:32:05;-4.25;72.60
72202;SHT30;60105;54.956;73.412;2023-01-24T09:34:31;-4.25;72.85
72202;SHT30;60105;54.956;73.412;2023-01-24T09:36:57;-4.10;72.34
72202;SHT30;60105;54.956;73.412;2023-01-24T09:39:24;-4.15;72.50
72202;SHT30;60105;54.956;73.412;2023-01-24T09:47:42;-4.13;72.99
72202;SHT30;60105;54.956;73.412;2023-01-24T09:50:24;-4.17;73.34
72202;SHT30;60105;54.956;73.412;2023-01-24T09:52:55;-4.09;73.35
72202;SHT30;60105;54.956;73.412;2023-01-24T09:58:00;-3.94;72.68
72202;SHT30;60105;54.956;73.412;2023-01-24T10:00:31;-4.04;72.95
72202;SHT30;60105;54.956;73.412;2023-01-24T10:02:59;-4.04;73.32
72202;SHT30;60105;54.956;73.412;2023-01-24T10:05:38;-4.09;73.32
72202;SHT30;60105;54.956;73.412;2023-01-24T10:08:19;-4.09;73.16
72202;SHT30;60105;54.956;73.412;2023-01-24T10:11:11;-4.09;73.28
72202;SHT30;60105;54.956;73.412;2023-01-24T10:14:13;-4.03;73.28
72202;SHT30;60105;54.956;73.412;2023-01-24T10:22:58;-3.96;72.70
72202;SHT30;60105;54.956;73.412;2023-01-24T10:25:48;-4.00;72.63
72202;SHT30;60105;54.956;73.412;2023-01-24T10:28:22;-3.99;73.01
72202;SHT30;60105;54.956;73.412;2023-01-24T10:33:53;-4.13;73.25
72202;SHT30;60105;54.956;73.412;2023-01-24T10:36:42;-4.17;73.14
72202;SHT30;60105;54.956;73.412;2023-01-24T10:39:19;-4.24;73.27
72202;SHT30;60105;54.956;73.412;2023-01-24T10:41:45;-4.31;73.86
72202;SHT30;60105;54.956;73.412;2023-01-24T10:44:18;-4.28;73.42
72202;SHT30;60105;54.956;73.412;2023-01-24T10:47:09;-4.31;73.49
72202;SHT30;60105;54.956;73.412;2023-01-24T10:50:08;-4.41;73.39
72202;SHT30;60105;54.956;73.412;2023-01-24T10:52:45;-4.40;73.71
72202;SHT30;60105;54.956;73.412;2023-01-24T10:55:35;-4.40;73.73
72202;SHT30;60105;54.956;73.412;2023-01-24T10:58:26;-4.31;73.03
72202;SHT30;60105;54.956;73.412;2023-01-24T11:00:58;-4.27;72.81
72202;SHT30;60105;54.956;73.412;2023-01-24T11:03:30;-4.30;72.91
72202;SHT30;60105;54.956;73.412;2023-01-24T11:06:01;-4.23;72.70
72202;SHT30;60105;54.956;73.412;2023-01-24T11:08:38;-4.17;72.42
72202;SHT30;60105;54.956;73.412;2023-01-24T11:11:22;-4.21;72.45
72202;SHT30;60105;54.956;73.412;2023-01-24T11:13:54;-4.24;72.36
72202;SHT30;60105;54.956;73.412;2023-01-24T11:16:52;-4.23;72.23
72202;SHT30;60105;54.956;73.412;2023-01-24T11:19:31;-4.24;72.00
72202;SHT30;60105;54.956;73.412;2023-01-24T11:22:17;-4.24;71.78
72202;SHT30;60105;54.956;73.412;2023-01-24T11:24:45;-4.31;71.88
72202;SHT30;60105;54.956;73.412;2023-01-24T11:27:21;-4.31;71.55
72202;SHT30;60105;54.956;73.412;2023-01-24T11:35:52;-4.48;72.12
72202;SHT30;60105;54.956;73.412;2023-01-24T11:38:27;-4.41;72.06
72202;SHT30;60105;54.956;73.412;2023-01-24T11:41:15;-4.44;71.89
72202;SHT30;60105;54.956;73.412;2023-01-24T11:43:56;-4.48;72.34
72202;SHT30;60105;54.956;73.412;2023-01-24T11:46:56;-4.48;72.49
72202;SHT30;60105;54.956;73.412;2023-01-24T11:49:56;-4.55;71.62
72202;SHT30;60105;54.956;73.412;2023-01-24T11:52:56;-4.73;72.05
72202;SHT30;60105;54.956;73.412;2023-01-24T11:58:29;-4.81;71.13
72202;SHT30;60105;54.956;73.412;2023-01-24T12:10:59;-5.02;71.27
72202;SHT30;60105;54.956;73.412;2023-01-24T12:13:43;-4.96;70.89
72202;SHT30;60105;54.956;73.412;2023-01-24T12:16:51;-4.95;70.54
72202;SHT30;60105;54.956;73.412;2023-01-24T12:22:12;-5.24;71.11
72202;SHT30;60105;54.956;73.412;2023-01-24T12:24:42;-5.20;70.86
72202;SHT30;60105;54.956;73.412;2023-01-24T12:27:23;-5.19;70.97
72202;SHT30;60105;54.956;73.412;2023-01-24T12:30:03;-5.14;71.45
72202;SHT30;60105;54.956;73.412;2023-01-24T12:32:42;-4.99;70.66
72202;SHT30;60105;54.956;73.412;2023-01-24T12:46:04;-4.90;70.08
72202;SHT30;60105;54.956;73.412;2023-01-24T12:48:35;-4.79;69.92
72202;SHT30;60105;54.956;73.412;2023-01-24T12:57:14;-4.65;69.46
72202;SHT30;60105;54.956;73.412;2023-01-24T12:59:41;-4.72;69.34
72202;SHT30;60105;54.956;73.412;2023-01-24T13:11:25;-4.99;70.47
72202;SHT30;60105;54.956;73.412;2023-01-24T13:25:32;-5.04;69.76
72202;SHT30;60105;54.956;73.412;2023-01-24T13:28:11;-5.09;69.54
72202;SHT30;60105;54.956;73.412;2023-01-24T13:33:20;-5.34;69.07
72202;SHT30;60105;54.956;73.412;2023-01-24T13:35:54;-5.42;69.21
72202;SHT30;60105;54.956;73.412;2023-01-24T13:38:30;-5.55;69.97
72202;SHT30;60105;54.956;73.412;2023-01-24T13:41:03;-5.46;69.16
72202;SHT30;60105;54.956;73.412;2023-01-24T13:46:18;-5.47;68.62
72202;SHT30;60105;54.956;73.412;2023-01-24T13:48:46;-5.60;68.82
72202;SHT30;60105;54.956;73.412;2023-01-24T13:51:42;-5.72;69.06
72202;SHT30;60105;54.956;73.412;2023-01-24T13:54:39;-5.75;69.50
72202;SHT30;60105;54.956;73.412;2023-01-24T14:10:51;-5.81;69.65
72202;SHT30;60105;54.956;73.412;2023-01-24T14:21:50;-5.81;70.26
72202;SHT30;60105;54.956;73.412;2023-01-24T14:24:33;-5.78;70.56
72202;SHT30;60105;54.956;73.412;2023-01-24T14:27:20;-5.68;70.23
72202;SHT30;60105;54.956;73.412;2023-01-24T14:29:49;-5.71;70.21
72202;SHT30;60105;54.956;73.412;2023-01-24T14:32:34;-5.86;71.16
72202;SHT30;60105;54.956;73.412;2023-01-24T14:37:46;-5.83;71.33
72202;SHT30;60105;54.956;73.412;2023-01-24T14:40:28;-5.68;71.14
72202;SHT30;60105;54.956;73.412;2023-01-24T14:43:01;-5.62;70.28
72202;SHT30;60105;54.956;73.412;2023-01-24T14:45:30;-5.55;70.33
72202;SHT30;60105;54.956;73.412;2023-01-24T14:48:09;-5.60;70.24
72202;SHT30;60105;54.956;73.412;2023-01-24T14:50:59;-5.61;70.03
72202;SHT30;60105;54.956;73.412;2023-01-24T14:53:30;-5.72;70.02
72202;SHT30;60105;54.956;73.412;2023-01-24T14:56:12;-5.68;70.05
72202;SHT30;60105;54.956;73.412;2023-01-24T14:58:44;-5.70;69.88
72202;SHT30;60105;54.956;73.412;2023-01-24T15:01:29;-5.74;70.07
72202;SHT30;60105;54.956;73.412;2023-01-24T15:04:04;-5.88;70.37
72202;SHT30;60105;54.956;73.412;2023-01-24T15:06:31;-5.89;70.51
72202;SHT30;60105;54.956;73.412;2023-01-24T15:09:12;-5.98;70.70
72202;SHT30;60105;54.956;73.412;2023-01-24T15:11:41;-5.91;70.21
72202;SHT30;60105;54.956;73.412;2023-01-24T15:14:17;-5.99;69.80
72202;SHT30;60105;54.956;73.412;2023-01-24T15:16:52;-6.06;69.66
72202;SHT30;60105;54.956;73.412;2023-01-24T15:19:25;-6.20;70.22
72202;SHT30;60105;54.956;73.412;2023-01-24T15:21:58;-6.14;70.08
72202;SHT30;60105;54.956;73.412;2023-01-24T15:24:31;-6.06;70.06
72202;SHT30;60105;54.956;73.412;2023-01-24T15:27:28;-6.06;69.92
72202;SHT30;60105;54.956;73.412;2023-01-24T15:30:22;-6.09;69.73
72202;SHT30;60105;54.956;73.412;2023-01-24T15:38:12;-5.89;69.21
72202;SHT30;60105;54.956;73.412;2023-01-24T15:46:34;-6.02;69.02
72202;SHT30;60105;54.956;73.412;2023-01-24T15:49:35;-5.93;69.29
72202;SHT30;60105;54.956;73.412;2023-01-24T15:54:45;-5.92;68.49
72202;SHT30;60105;54.956;73.412;2023-01-24T15:57:31;-5.88;68.25
72202;SHT30;60105;54.956;73.412;2023-01-24T16:00:02;-6.10;67.78
72202;SHT30;60105;54.956;73.412;2023-01-24T16:02:45;-6.24;68.44
72202;SHT30;60105;54.956;73.412;2023-01-24T16:05:14;-6.24;68.83
72202;SHT30;60105;54.956;73.412;2023-01-24T16:07:46;-6.30;68.56
72202;SHT30;60105;54.956;73.412;2023-01-24T16:10:15;-6.34;68.32
72202;SHT30;60105;54.956;73.412;2023-01-24T16:12:46;-6.38;68.61
72202;SHT30;60105;54.956;73.412;2023-01-24T16:15:20;-6.45;68.69
72202;SHT30;60105;54.956;73.412;2023-01-24T16:17:52;-6.47;68.84
72202;SHT30;60105;54.956;73.412;2023-01-24T16:20:24;-6.57;68.56
72202;SHT30;60105;54.956;73.412;2023-01-24T16:22:54;-6.62;68.72
72202;SHT30;60105;54.956;73.412;2023-01-24T16:25:30;-6.54;68.26
72202;SHT30;60105;54.956;73.412;2023-01-24T16:28:03;-6.60;68.26
72202;SHT30;60105;54.956;73.412;2023-01-24T16:30:29;-6.68;68.70
72202;SHT30;60105;54.956;73.412;2023-01-24T16:32:56;-6.71;69.13
72202;SHT30;60105;54.956;73.412;2023-01-24T16:35:23;-6.72;69.52
72202;SHT30;60105;54.956;73.412;2023-01-24T16:37:49;-6.67;69.23
72202;SHT30;60105;54.956;73.412;2023-01-24T16:40:17;-6.68;69.02
72202;SHT30;60105;54.956;73.412;2023-01-24T16:42:48;-6.70;68.53
72202;SHT30;60105;54.956;73.412;2023-01-24T16:45:20;-6.68;68.56
72202;SHT30;60105;54.956;73.412;2023-01-24T16:47:49;-6.62;68.35
72202;SHT30;60105;54.956;73.412;2023-01-24T16:50:16;-6.64;68.21
72202;SHT30;60105;54.956;73.412;2023-01-24T16:52:42;-6.62;68.14
72202;SHT30;60105;54.956;73.412;2023-01-24T16:55:08;-6.64;68.04
72202;SHT30;60105;54.956;73.412;2023-01-24T16:57:35;-6.64;67.50
72202;SHT30;60105;54.956;73.412;2023-01-24T17:00:08;-6.71;68.29
72202;SHT30;60105;54.956;73.412;2023-01-24T17:02:43;-6.70;67.99
72202;SHT30;60105;54.956;73.412;2023-01-24T17:05:15;-6.77;68.24
72202;SHT30;60105;54.956;73.412;2023-01-24T17:07:43;-6.80;68.16
72202;SHT30;60105;54.956;73.412;2023-01-24T17:10:15;-6.75;68.31
72202;SHT30;60105;54.956;73.412;2023-01-24T17:12:52;-6.78;68.15
72202;SHT30;60105;54.956;73.412;2023-01-24T17:15:29;-6.80;68.30
72202;SHT30;60105;54.956;73.412;2023-01-24T17:17:55;-6.77;68.12
72202;SHT30;60105;54.956;73.412;2023-01-24T17:20:26;-6.81;68.62
72202;SHT30;60105;54.956;73.412;2023-01-24T17:23:03;-6.72;68.44
72202;SHT30;60105;54.956;73.412;2023-01-24T17:25:31;-6.82;68.50
72202;SHT30;60105;54.956;73.412;2023-01-24T17:27:59;-6.81;68.23
72202;SHT30;60105;54.956;73.412;2023-01-24T17:30:25;-6.81;68.09
72202;SHT30;60105;54.956;73.412;2023-01-24T17:32:52;-6.82;68.29
72202;SHT30;60105;54.956;73.412;2023-01-24T17:35:18;-6.88;68.26
72202;SHT30;60105;54.956;73.412;2023-01-24T17:37:44;-6.92;68.35
72202;SHT30;60105;54.956;73.412;2023-01-24T17:40:20;-6.96;68.64
72202;SHT30;60105;54.956;73.412;2023-01-24T17:42:57;-6.96;68.54
72202;SHT30;60105;54.956;73.412;2023-01-24T17:45:23;-6.96;68.62
72202;SHT30;60105;54.956;73.412;2023-01-24T17:47:49;-6.92;68.57
72202;SHT30;60105;54.956;73.412;2023-01-24T17:50:17;-6.84;68.15
72202;SHT30;60105;54.956;73.412;2023-01-24T17:52:43;-6.80;67.93
72202;SHT30;60105;54.956;73.412;2023-01-24T17:55:09;-6.91;67.94
72202;SHT30;60105;54.956;73.412;2023-01-24T17:57:36;-6.92;67.95
72202;SHT30;60105;54.956;73.412;2023-01-24T18:00:08;-6.92;68.11
72202;SHT30;60105;54.956;73.412;2023-01-24T18:02:45;-6.98;67.87
72202;SHT30;60105;54.956;73.412;2023-01-24T18:05:12;-7.08;68.27
72202;SHT30;60105;54.956;73.412;2023-01-24T18:07:46;-7.18;68.36
72202;SHT30;60105;54.956;73.412;2023-01-24T18:10:13;-7.12;68.51